Hiko, Nevada
Current Conditions -  °F | °C
As of 2:58 AM on Sunday 23 Nov 2014 (Local Time) from KINS Reporting Station
Clear Clear  
Wind Chill: 43°   Ceiling: Unl
Heat Index: 48°   Visibility: 10mi
Dew Point: 20°   Wind: 10mph
Humidity: 33%   Direction: 310°NW
Pressure: 30.15"   Gusts: NA
Location:  37.6°N, 115.23°W
Report Text: KINS 231058Z AUTO 31009KT 10SM CLR 09/M07 A3015 RMK AO2 SLP186 T00871069
Loading
Personal Weather Stations






























Interactive Weather Map New forecast layout! Learn more

10-Day Weather Forecast

Advertisements
Track Severe Weather on mobile